| time (UTC) | temp C | wind direction | speed KPH | gust KPH | rain 1hr cm | rain 24hr cm | rain mn cm | humidity % | barometer mb |
| 20260905222600 | 21 | 326 | 4.8 | 25.7 | 0.00 | 0.00 | 0.00 | 63 | 1018.4 |
| 20260905221100 | 21 | 341 | 3.2 | 19.3 | 0.00 | 0.00 | 0.00 | 65 | 1018.1 |
| 20260905215601 | 20 | 11 | 3.2 | 19.3 | 0.00 | 0.00 | 0.00 | 65 | 1018.0 |
| 20260905214101 | 20 | 245 | 6.4 | 40.2 | 0.00 | 0.00 | 0.00 | 65 | 1017.9 |
| 20260905212601 | 21 | 301 | 4.8 | 40.2 | 0.00 | 0.00 | 0.00 | 65 | 1017.8 |
| 20260905211100 | 20 | 324 | 3.2 | 25.7 | 0.00 | 0.00 | 0.00 | 65 | 1017.7 |
| 20260905205600 | 20 | 272 | 3.2 | 19.3 | 0.00 | 0.00 | 0.00 | 65 | 1017.5 |
| 20260905204100 | 20 | 271 | 1.6 | 6.4 | 0.00 | 0.00 | 0.00 | 65 | 1017.6 |
| 20260905202601 | 21 | 274 | 1.6 | 12.9 | 0.00 | 0.00 | 0.00 | 64 | 1017.5 |
| 20260905201100 | 21 | 291 | 1.6 | 12.9 | 0.00 | 0.00 | 0.00 | 63 | 1017.5 |
| 20260905194101 | 21 | 273 | 1.6 | 12.9 | 0.00 | 0.00 | 0.00 | 61 | 1017.3 |
| 20260905192600 | 21 | 307 | 1.6 | 12.9 | 0.00 | 0.00 | 0.00 | 61 | 1017.2 |
| 20260905191100 | 21 | 297 | 4.8 | 25.7 | 0.00 | 0.00 | 0.00 | 60 | 1017.0 |
| 20260905185600 | 21 | 290 | 3.2 | 19.3 | 0.00 | 0.00 | 0.00 | 60 | 1017.0 |
| 20260905184100 | 21 | 295 | 1.6 | 12.9 | 0.00 | 0.00 | 0.00 | 60 | 1016.8 |
| 20260905182600 | 21 | 297 | 1.6 | 6.4 | 0.00 | 0.00 | 0.00 | 60 | 1016.6 |
| 20260905181100 | 22 | 251 | 1.6 | 6.4 | 0.00 | 0.00 | 0.00 | 56 | 1016.3 |
| 20260905175600 | 22 | 264 | 1.6 | 12.9 | 0.00 | 0.00 | 0.00 | 50 | 1016.4 |
| 20260905174101 | 23 | 278 | 3.2 | 19.3 | 0.00 | 0.00 | 0.00 | 48 | 1016.0 |
| 20260905172600 | 23 | 282 | 1.6 | 12.9 | 0.00 | 0.00 | 0.00 | 48 | 1016.0 |
| 20260905171101 | 23 | 272 | 9.7 | 53.1 | 0.00 | 0.00 | 0.00 | 48 | 1015.6 |
| 20260905165600 | 23 | 287 | 3.2 | 12.9 | 0.00 | 0.00 | 0.00 | 54 | 1015.5 |
| 20260905164101 | 23 | 353 | 1.6 | 12.9 | 0.00 | 0.00 | 0.00 | 54 | 1015.3 |
| 20260905162600 | 24 | 318 | 3.2 | 12.9 | 0.00 | 0.00 | 0.00 | 53 | 1015.2 |
| 20260905161100 | 25 | 328 | 4.8 | 25.7 | 0.00 | 0.00 | 0.00 | 51 | 1015.5 |
| 20260905155601 | 25 | 283 | 4.8 | 19.3 | 0.00 | 0.00 | 0.00 | 51 | 1015.3 |
| 20260905154101 | 25 | 250 | 4.8 | 25.7 | 0.00 | 0.00 | 0.00 | 50 | 1015.2 |
| 20260905152600 | 25 | 150 | 3.2 | 19.3 | 0.00 | 0.00 | 0.00 | 51 | 1015.3 |
| 20260905151101 | 25 | 5 | 9.7 | 46.7 | 0.00 | 0.00 | 0.00 | 52 | 1015.2 |
| 20260905145601 | 25 | 217 | 3.2 | 12.9 | 0.00 | 0.00 | 0.00 | 53 | 1015.3 |
| 20260905144100 | 24 | 247 | 3.2 | 19.3 | 0.00 | 0.00 | 0.00 | 54 | 1015.2 |
| 20260905142600 | 25 | 287 | 6.4 | 33.8 | 0.00 | 0.00 | 0.00 | 53 | 1015.4 |
| 20260905141101 | 25 | 348 | 9.7 | 46.7 | 0.00 | 0.00 | 0.00 | 54 | 1015.6 |
| 20260905135600 | 25 | 319 | 6.4 | 33.8 | 0.00 | 0.00 | 0.00 | 55 | 1015.6 |
| 20260905134101 | 25 | 283 | 4.8 | 40.2 | 0.00 | 0.00 | 0.00 | 55 | 1015.5 |
| 20260905132601 | 25 | 313 | 3.2 | 19.3 | 0.00 | 0.00 | 0.00 | 55 | 1015.2 |
| 20260905131100 | 26 | 203 | 6.4 | 33.8 | 0.00 | 0.00 | 0.00 | 53 | 1015.6 |
| 20260905125600 | 25 | 258 | 3.2 | 19.3 | 0.00 | 0.00 | 0.00 | 51 | 1015.5 |
| 20260905124100 | 25 | 345 | 3.2 | 25.7 | 0.00 | 0.00 | 0.00 | 52 | 1015.6 |
| 20260905122601 | 25 | 234 | 3.2 | 12.9 | 0.00 | 0.00 | 0.00 | 52 | 1015.8 |
| 20260905121100 | 24 | 307 | 6.4 | 25.7 | 0.00 | 0.00 | 0.00 | 52 | 1015.6 |
| 20260905115601 | 24 | 347 | 6.4 | 33.8 | 0.00 | 0.00 | 0.00 | 53 | 1015.6 |
| 20260905114100 | 24 | 314 | 3.2 | 12.9 | 0.00 | 0.00 | 0.00 | 55 | 1015.8 |
| 20260905112600 | 23 | 307 | 4.8 | 25.7 | 0.00 | 0.00 | 0.00 | 56 | 1015.9 |
| 20260905111100 | 21 | 321 | 4.8 | 33.8 | 0.00 | 0.00 | 0.00 | 63 | 1016.1 |
| 20260905105600 | 20 | 249 | 4.8 | 33.8 | 0.00 | 0.00 | 0.00 | 64 | 1016.1 |
| 20260905104101 | 20 | 268 | 8.0 | 40.2 | 0.00 | 0.00 | 0.00 | 63 | 1016.2 |
| 20260905102600 | 20 | 300 | 4.8 | 19.3 | 0.00 | 0.00 | 0.00 | 63 | 1016.4 |
| 20260905101100 | 20 | 266 | 3.2 | 12.9 | 0.00 | 0.00 | 0.00 | 63 | 1016.4 |
| 20260905095600 | 20 | 339 | 8.0 | 40.2 | 0.00 | 0.00 | 0.00 | 64 | 1016.4 |
| 20260905094100 | 20 | 252 | 4.8 | 19.3 | 0.00 | 0.00 | 0.00 | 63 | 1016.4 |
| 20260905092601 | 21 | 250 | 1.6 | 6.4 | 0.00 | 0.00 | 0.00 | 61 | 1016.6 |
| 20260905091100 | 21 | 326 | 3.2 | 12.9 | 0.00 | 0.00 | 0.00 | 59 | 1016.5 |
| 20260905085601 | 20 | 258 | 1.6 | 12.9 | 0.00 | 0.00 | 0.00 | 62 | 1016.5 |
| 20260905084100 | 20 | 264 | 9.7 | 53.1 | 0.00 | 0.00 | 0.00 | 60 | 1016.4 |
| 20260905082600 | 21 | 298 | 3.2 | 19.3 | 0.00 | 0.00 | 0.00 | 58 | 1016.4 |
| 20260905081100 | 21 | 298 | 3.2 | 12.9 | 0.00 | 0.00 | 0.00 | 56 | 1016.3 |
| 20260905075600 | 21 | 272 | 1.6 | 12.9 | 0.00 | 0.00 | 0.00 | 56 | 1016.2 |
| 20260905074100 | 20 | 300 | 3.2 | 12.9 | 0.00 | 0.00 | 0.00 | 56 | 1016.4 |
| 20260905072601 | 20 | 60 | 3.2 | 19.3 | 0.00 | 0.00 | 0.00 | 60 | 1016.4 |
| 20260905071101 | 21 | 98 | 3.2 | 12.9 | 0.00 | 0.00 | 0.00 | 59 | 1016.1 |
| 20260905065600 | 21 | 241 | 1.6 | 12.9 | 0.00 | 0.00 | 0.00 | 54 | 1015.9 |
| 20260905064101 | 21 | 358 | 0.0 | 6.4 | 0.00 | 0.00 | 0.00 | 54 | 1015.5 |
| 20260905062600 | 21 | 232 | 1.6 | 6.4 | 0.00 | 0.00 | 0.00 | 57 | 1015.3 |
| 20260905061101 | 22 | 202 | 6.4 | 40.2 | 0.00 | 0.00 | 0.00 | 56 | 1014.8 |
| 20260905055600 | 21 | 266 | 1.6 | 12.9 | 0.00 | 0.00 | 0.00 | 56 | 1013.8 |
| 20260905054101 | 21 | 296 | 1.6 | 6.4 | 0.00 | 0.00 | 0.00 | 57 | 1013.6 |
| 20260905052600 | 21 | 6 | 1.6 | 12.9 | 0.00 | 0.00 | 0.00 | 56 | 1013.2 |
| 20260905051100 | 22 | 273 | 1.6 | 6.4 | 0.00 | 0.00 | 0.00 | 55 | 1012.7 |
| 20260905045601 | 22 | 30 | 1.6 | 12.9 | 0.00 | 0.00 | 0.00 | 55 | 1012.3 |
| 20260905044100 | 22 | 307 | 3.2 | 12.9 | 0.00 | 0.00 | 0.00 | 59 | 1011.7 |
| 20260905042600 | 22 | 302 | 1.6 | 6.4 | 0.00 | 0.00 | 0.00 | 60 | 1011.3 |
| 20260905041059 | 22 | 224 | 4.8 | 33.8 | 0.00 | 0.00 | 0.00 | 64 | 1011.3 |
| 20260905035600 | 23 | 225 | 1.6 | 12.9 | 0.00 | 0.00 | 0.00 | 61 | 1010.6 |
| 20260905034100 | 23 | 290 | 3.2 | 12.9 | 0.00 | 0.00 | 0.00 | 59 | 1010.3 |
| 20260905032600 | 21 | 254 | 0.0 | 6.4 | 0.00 | 0.00 | 0.00 | 67 | 1010.0 |
| 20260905031100 | 21 | 240 | 0.0 | 0.0 | 0.00 | 0.00 | 0.00 | 70 | 1009.5 |
| 20260905025601 | 21 | 247 | 0.0 | 0.0 | 0.00 | 0.00 | 0.00 | 71 | 1009.8 |
| 20260905024059 | 21 | 257 | 0.0 | 0.0 | 0.00 | 0.00 | 0.00 | 72 | 1009.7 |
| 20260905022559 | 21 | 251 | 1.6 | 6.4 | 0.00 | 0.00 | 0.00 | 73 | 1009.6 |
| 20260905021100 | 20 | 214 | 1.6 | 6.4 | 0.00 | 0.00 | 0.00 | 73 | 1009.5 |
| 20260905015559 | 20 | 229 | 1.6 | 12.9 | 0.00 | 0.00 | 0.00 | 75 | 1009.4 |
| 20260905014059 | 20 | 246 | 0.0 | 0.0 | 0.00 | 0.00 | 0.00 | 74 | 1009.2 |
| 20260905012600 | 20 | 202 | 3.2 | 12.9 | 0.00 | 0.00 | 0.00 | 73 | 1009.4 |
| 20260905011059 | 21 | 208 | 0.0 | 6.4 | 0.00 | 0.00 | 0.00 | 72 | 1009.0 |
| 20260905005601 | 21 | 216 | 0.0 | 0.0 | 0.00 | 0.00 | 0.00 | 71 | 1009.0 |
| 20260905004101 | 21 | 179 | 0.0 | 6.4 | 0.00 | 0.00 | 0.00 | 70 | 1009.0 |
| 20260905002600 | 21 | 262 | 0.0 | 6.4 | 0.00 | 0.00 | 0.00 | 70 | 1009.4 |
| 20260905001100 | 21 | 237 | 1.6 | 6.4 | 0.00 | 0.00 | 0.00 | 70 | 1009.0 |
| 20260904235600 | 21 | 230 | 0.0 | 0.0 | 0.00 | 0.00 | 0.00 | 70 | 1009.1 |
| 20260904234100 | 21 | 237 | 0.0 | 0.0 | 0.00 | 0.00 | 0.00 | 70 | 1008.8 |
| 20260904232600 | 21 | 263 | 0.0 | 0.0 | 0.00 | 0.00 | 0.00 | 69 | 1008.7 |
| 20260904231059 | 21 | 246 | 0.0 | 0.0 | 0.00 | 0.00 | 0.00 | 69 | 1008.7 |
| 20260904225600 | 21 | 222 | 1.6 | 6.4 | 0.00 | 0.00 | 0.00 | 68 | 1008.7 |
| 20260904224100 | 22 | 239 | 0.0 | 6.4 | 0.00 | 0.00 | 0.00 | 66 | 1008.6 |